createdAt,value
2024-04-19T00:02:03.547Z,50.24
2024-04-19T00:05:07.531Z,50.24
2024-04-19T00:08:10.240Z,50.25
2024-04-19T00:11:13.198Z,50.24
2024-04-19T00:14:16.195Z,50.30
2024-04-19T00:17:18.668Z,50.30
2024-04-19T00:20:22.846Z,50.30
2024-04-19T00:23:43.393Z,50.32
2024-04-19T00:26:45.987Z,50.33
2024-04-19T00:29:48.638Z,50.30
2024-04-19T00:33:05.140Z,50.35
2024-04-19T00:36:13.932Z,50.34
2024-04-19T00:39:16.439Z,50.41
2024-04-19T00:42:19.043Z,50.36
2024-04-19T00:45:34.752Z,50.37
2024-04-19T00:48:38.649Z,50.41
2024-04-19T00:51:41.587Z,50.43
2024-04-19T00:54:45.839Z,50.43
2024-04-19T00:57:48.445Z,50.41
2024-04-19T01:00:51.366Z,50.46
2024-04-19T01:03:54.842Z,50.47
2024-04-19T01:06:57.442Z,50.50
2024-04-19T01:09:59.924Z,50.47
2024-04-19T01:13:03.123Z,50.47
2024-04-19T01:16:06.030Z,50.49
2024-04-19T01:19:27.312Z,50.50
2024-04-19T01:22:29.809Z,50.52
2024-04-19T01:25:37.178Z,50.53
2024-04-19T01:28:39.498Z,50.55
2024-04-19T01:31:42.563Z,50.54
2024-04-19T01:34:44.923Z,50.58
2024-04-19T01:37:47.212Z,50.59
2024-04-19T01:40:49.529Z,50.59
2024-04-19T01:43:51.881Z,50.60
2024-04-19T01:46:54.130Z,50.63
2024-04-19T01:49:56.451Z,50.60
2024-04-19T01:52:58.891Z,50.64
2024-04-19T01:56:01.400Z,50.63
2024-04-19T01:59:16.059Z,50.66
2024-04-19T02:02:18.364Z,50.68
2024-04-19T02:05:20.775Z,50.68
2024-04-19T02:08:23.130Z,50.69
2024-04-19T02:11:25.435Z,50.71
2024-04-19T02:14:27.959Z,50.73
2024-04-19T02:17:30.489Z,50.72
2024-04-19T02:20:32.858Z,50.77
2024-04-19T02:23:38.365Z,50.77
2024-04-19T02:26:41.777Z,50.76
2024-04-19T02:30:03.179Z,50.78
2024-04-19T02:33:05.700Z,50.79
2024-04-19T02:36:10.707Z,50.76
2024-04-19T02:39:13.086Z,50.78
2024-04-19T02:42:15.465Z,50.82
2024-04-19T02:45:26.988Z,50.82
2024-04-19T02:48:29.771Z,50.82
2024-04-19T02:51:32.465Z,50.82
2024-04-19T02:54:34.796Z,50.85
2024-04-19T02:57:37.196Z,50.88
2024-04-19T03:00:39.645Z,50.87
2024-04-19T03:03:42.108Z,50.91
2024-04-19T03:06:44.514Z,50.90
2024-04-19T03:09:48.775Z,50.90
2024-04-19T03:12:51.845Z,50.94
2024-04-19T03:16:04.870Z,50.93
2024-04-19T03:19:15.885Z,50.95
2024-04-19T03:22:19.459Z,50.98
2024-04-19T03:25:22.083Z,50.99
2024-04-19T03:28:24.894Z,50.95
2024-04-19T03:31:27.374Z,51.00
2024-04-19T03:34:29.695Z,50.95
2024-04-19T03:37:31.956Z,50.98
2024-04-19T03:40:34.383Z,50.98
2024-04-19T03:43:42.327Z,51.01
2024-04-19T03:46:44.704Z,51.03
2024-04-19T03:49:47.082Z,51.01
2024-04-19T03:52:49.518Z,51.08
2024-04-19T03:55:51.902Z,51.08
2024-04-19T03:58:54.299Z,51.01
2024-04-19T04:01:56.689Z,51.04
2024-04-19T04:04:59.029Z,51.07
2024-04-19T04:08:01.528Z,51.08
2024-04-19T04:11:04.110Z,50.92
2024-04-19T04:14:06.425Z,50.59
2024-04-19T04:17:08.831Z,50.36
2024-04-19T04:20:11.155Z,50.27
2024-04-19T04:23:13.500Z,50.22
2024-04-19T04:26:15.862Z,50.13
2024-04-19T04:29:18.216Z,50.06
2024-04-19T04:32:22.410Z,50.05
2024-04-19T04:35:24.756Z,50.05
2024-04-19T04:38:27.149Z,49.91
2024-04-19T04:41:29.638Z,49.79
2024-04-19T04:44:34.348Z,49.79
2024-04-19T04:47:37.316Z,49.77
2024-04-19T04:50:41.594Z,49.76
2024-04-19T04:53:43.972Z,49.60
2024-04-19T04:56:46.325Z,49.50
2024-04-19T04:59:48.718Z,49.47
2024-04-19T05:02:51.336Z,49.44
2024-04-19T05:05:59.200Z,49.43
2024-04-19T05:09:01.485Z,49.47
2024-04-19T05:12:04.042Z,49.44
2024-04-19T05:15:06.858Z,49.46
2024-04-19T05:18:09.287Z,49.50
2024-04-19T05:21:11.595Z,49.49
2024-04-19T05:24:13.947Z,49.37
2024-04-19T05:27:16.385Z,49.21
2024-04-19T05:30:18.904Z,49.12
2024-04-19T05:33:21.452Z,49.09
2024-04-19T05:36:23.837Z,49.15
2024-04-19T05:39:26.166Z,49.15
2024-04-19T05:42:30.008Z,49.20
2024-04-19T05:45:36.426Z,49.21
2024-04-19T05:48:38.874Z,49.26
2024-04-19T05:51:41.223Z,49.18
2024-04-19T05:54:43.668Z,49.03
2024-04-19T05:57:46.300Z,48.89
2024-04-19T06:00:50.101Z,48.89
2024-04-19T06:03:52.828Z,48.79
2024-04-19T06:06:55.574Z,48.81
2024-04-19T06:09:58.047Z,48.71
2024-04-19T06:13:00.381Z,48.62
2024-04-19T06:16:02.929Z,48.61
2024-04-19T06:19:05.590Z,48.55
2024-04-19T06:22:08.037Z,48.39
2024-04-19T06:25:10.874Z,48.34
2024-04-19T06:28:13.354Z,48.44
2024-04-19T06:31:21.492Z,48.40
2024-04-19T06:34:24.180Z,48.36
2024-04-19T06:37:26.619Z,48.42
2024-04-19T06:40:29.003Z,48.45
2024-04-19T06:43:31.535Z,48.76
2024-04-19T06:46:36.896Z,49.21
2024-04-19T06:49:39.458Z,49.47
2024-04-19T06:52:41.933Z,49.30
2024-04-19T06:55:44.291Z,49.22
2024-04-19T06:58:49.951Z,49.08
2024-04-19T07:01:52.740Z,49.15
2024-04-19T07:04:55.308Z,49.24
2024-04-19T07:07:57.864Z,49.29
2024-04-19T07:11:02.527Z,49.58
2024-04-19T07:14:04.961Z,49.35
2024-04-19T07:17:07.387Z,49.50
2024-04-19T07:20:09.962Z,49.85
2024-04-19T07:23:12.238Z,49.79
2024-04-19T07:26:14.609Z,49.59
2024-04-19T07:29:17.576Z,49.38
2024-04-19T07:32:21.902Z,49.36
2024-04-19T07:35:24.411Z,49.20
2024-04-19T07:38:26.933Z,49.34
2024-04-19T07:41:29.399Z,49.73
2024-04-19T07:44:31.714Z,49.42
2024-04-19T07:47:34.198Z,49.08
2024-04-19T07:50:36.575Z,49.11
2024-04-19T07:53:39.135Z,48.96
2024-04-19T07:56:43.525Z,49.33
2024-04-19T07:59:45.853Z,49.51
2024-04-19T08:02:48.210Z,49.82
2024-04-19T08:05:52.128Z,49.92
2024-04-19T08:08:54.562Z,50.12
2024-04-19T08:11:56.923Z,50.18
2024-04-19T08:14:59.306Z,49.64
2024-04-19T08:18:01.634Z,49.25
2024-04-19T08:21:04.300Z,49.18
2024-04-19T08:24:06.868Z,49.12
2024-04-19T08:27:09.867Z,49.15
2024-04-19T08:30:14.946Z,49.05
2024-04-19T08:33:17.415Z,48.71
2024-04-19T08:36:19.908Z,48.69
2024-04-19T08:39:22.208Z,48.69
2024-04-19T08:42:25.346Z,48.74
2024-04-19T08:45:28.982Z,48.73
2024-04-19T08:48:36.612Z,48.42
2024-04-19T08:51:55.840Z,48.19
2024-04-19T08:55:06.594Z,48.41
2024-04-19T08:58:09.130Z,48.28
2024-04-19T09:01:11.718Z,47.95
2024-04-19T09:04:15.512Z,47.99
2024-04-19T09:07:19.348Z,47.72
2024-04-19T09:10:22.081Z,47.48
2024-04-19T09:13:24.554Z,47.25
2024-04-19T09:16:26.837Z,46.56
2024-04-19T09:19:30.621Z,46.15
2024-04-19T09:22:33.316Z,45.90
2024-04-19T09:25:35.703Z,44.84
2024-04-19T09:28:38.270Z,45.56
2024-04-19T09:31:43.838Z,46.25
2024-04-19T09:34:46.207Z,46.48
2024-04-19T09:37:49.452Z,46.81
2024-04-19T09:40:52.114Z,46.88
2024-04-19T09:43:59.395Z,46.88
2024-04-19T09:47:05.279Z,46.78
2024-04-19T09:50:13.022Z,46.77
2024-04-19T09:53:21.130Z,46.71
2024-04-19T09:56:32.809Z,46.68
2024-04-19T09:59:36.755Z,46.41
2024-04-19T10:02:40.785Z,46.56
2024-04-19T10:05:43.358Z,46.42
2024-04-19T10:08:48.230Z,46.25
2024-04-19T10:11:51.784Z,45.54
2024-04-19T10:14:54.143Z,45.05
2024-04-19T10:17:56.533Z,45.32
2024-04-19T10:21:00.511Z,45.73
2024-04-19T10:24:22.075Z,47.18
2024-04-19T10:27:28.799Z,47.61
2024-04-19T10:30:36.739Z,47.56
2024-04-19T10:33:39.785Z,48.71
2024-04-19T10:36:42.273Z,48.70
2024-04-19T10:39:44.940Z,48.73
2024-04-19T10:42:47.597Z,48.82
2024-04-19T10:45:50.340Z,48.70
2024-04-19T10:48:54.004Z,48.89
2024-04-19T10:51:56.562Z,49.02
2024-04-19T10:54:58.929Z,48.87
2024-04-19T10:58:01.664Z,48.93
2024-04-19T11:01:04.176Z,48.95
2024-04-19T11:04:06.980Z,48.99
2024-04-19T11:07:09.688Z,49.05
2024-04-19T11:10:12.212Z,49.12
2024-04-19T11:13:15.330Z,49.15
2024-04-19T11:16:18.853Z,49.17
2024-04-19T11:19:21.450Z,49.23
2024-04-19T11:22:24.411Z,49.30
2024-04-19T11:25:27.302Z,49.32
2024-04-19T11:28:29.734Z,49.38
2024-04-19T11:31:33.118Z,49.38
2024-04-19T11:34:36.994Z,49.51
2024-04-19T11:37:39.991Z,49.44
2024-04-19T11:40:43.320Z,49.50
2024-04-19T11:43:45.647Z,49.60
2024-04-19T11:46:50.207Z,49.63
2024-04-19T11:49:55.680Z,49.63
2024-04-19T11:52:58.512Z,49.74
2024-04-19T11:56:00.898Z,49.85
2024-04-19T11:59:03.637Z,49.98
2024-04-19T12:02:05.976Z,49.95
2024-04-19T12:05:08.407Z,49.98
2024-04-19T12:08:10.937Z,50.01
2024-04-19T12:11:13.442Z,50.03
2024-04-19T12:15:00.649Z,50.05
2024-04-19T12:17:38.466Z,50.06
2024-04-19T12:20:50.070Z,50.10
2024-04-19T12:23:54.782Z,50.15
2024-04-19T12:27:00.144Z,50.11
2024-04-19T12:30:02.719Z,50.13
2024-04-19T12:33:05.555Z,50.14
2024-04-19T12:36:08.695Z,50.15
2024-04-19T12:39:11.074Z,50.14
2024-04-19T12:42:13.810Z,50.18
2024-04-19T12:45:16.295Z,50.18
2024-04-19T12:48:18.853Z,50.18
2024-04-19T12:51:25.195Z,50.20
2024-04-19T12:54:27.886Z,50.23
2024-04-19T12:57:30.378Z,50.24
2024-04-19T13:00:32.804Z,50.18
2024-04-19T13:03:35.464Z,50.23
2024-04-19T13:06:38.261Z,50.21
2024-04-19T13:09:40.697Z,50.18
2024-04-19T13:12:43.022Z,50.17
2024-04-19T13:15:45.483Z,50.13
2024-04-19T13:18:48.036Z,50.17
2024-04-19T13:21:50.611Z,50.14
2024-04-19T13:24:53.049Z,50.14
2024-04-19T13:27:56.399Z,50.14
2024-04-19T13:30:59.040Z,50.14
2024-04-19T13:34:01.557Z,50.11
2024-04-19T13:37:05.742Z,50.11
2024-04-19T13:40:10.237Z,50.14
2024-04-19T13:43:16.268Z,50.25
2024-04-19T13:46:19.232Z,50.26
2024-04-19T13:49:21.779Z,50.24
2024-04-19T13:52:24.247Z,50.24
2024-04-19T13:55:26.779Z,50.24
2024-04-19T13:58:31.184Z,50.27
2024-04-19T14:01:33.622Z,50.26
2024-04-19T14:04:36.326Z,50.31
2024-04-19T14:07:38.720Z,50.29
2024-04-19T14:10:43.707Z,50.30
2024-04-19T14:13:46.257Z,50.35
2024-04-19T14:16:50.372Z,50.15
2024-04-19T14:19:55.205Z,50.05
2024-04-19T14:22:57.551Z,50.02
2024-04-19T14:26:01.285Z,49.95
2024-04-19T14:29:06.986Z,49.99
2024-04-19T14:32:09.388Z,50.00
2024-04-19T14:35:11.986Z,50.01
2024-04-19T14:38:14.554Z,50.07
2024-04-19T14:41:17.958Z,50.02
2024-04-19T14:44:20.244Z,49.96
2024-04-19T14:47:22.778Z,49.92
2024-04-19T14:50:25.171Z,49.92
2024-04-19T14:53:27.684Z,49.91
2024-04-19T14:56:30.132Z,49.82
2024-04-19T14:59:32.617Z,49.81
2024-04-19T15:02:35.226Z,49.75
2024-04-19T15:05:37.650Z,49.69
2024-04-19T15:08:39.986Z,49.68
2024-04-19T15:11:42.279Z,49.65
2024-04-19T15:14:44.805Z,49.66
2024-04-19T15:17:48.553Z,49.66
2024-04-19T15:20:52.108Z,49.62
2024-04-19T15:23:54.762Z,49.60
2024-04-19T15:26:57.233Z,49.66
2024-04-19T15:29:59.640Z,49.66
2024-04-19T15:33:02.228Z,49.69
2024-04-19T15:36:05.909Z,49.76
2024-04-19T15:39:08.343Z,49.74
2024-04-19T15:42:12.413Z,49.78
2024-04-19T15:45:15.126Z,49.79
2024-04-19T15:48:17.696Z,49.85
2024-04-19T15:51:20.883Z,49.76
2024-04-19T15:54:23.972Z,49.79
2024-04-19T15:57:29.907Z,49.85
2024-04-19T16:00:32.723Z,49.88
2024-04-19T16:03:38.458Z,49.97
2024-04-19T16:06:40.912Z,49.85
2024-04-19T16:09:43.378Z,49.86
2024-04-19T16:12:45.835Z,49.96
2024-04-19T16:15:48.390Z,50.01
2024-04-19T16:18:51.128Z,50.05
2024-04-19T16:21:53.831Z,50.06
2024-04-19T16:24:56.750Z,50.08
2024-04-19T16:27:59.570Z,50.06
2024-04-19T16:31:02.088Z,50.11
2024-04-19T16:34:04.724Z,50.05
2024-04-19T16:37:07.200Z,50.08
2024-04-19T16:40:10.135Z,50.49
2024-04-19T16:43:12.859Z,50.64
2024-04-19T16:46:15.257Z,50.65
2024-04-19T16:49:17.851Z,50.42
2024-04-19T16:52:21.576Z,50.34
2024-04-19T16:55:24.025Z,50.39
2024-04-19T16:58:26.386Z,50.34
2024-04-19T17:01:29.011Z,50.35
2024-04-19T17:04:32.168Z,50.31
2024-04-19T17:07:34.526Z,50.34
2024-04-19T17:10:37.654Z,50.37
2024-04-19T17:13:40.355Z,50.43
2024-04-19T17:16:44.532Z,50.39
2024-04-19T17:19:46.846Z,50.37
2024-04-19T17:22:49.194Z,50.42
2024-04-19T17:25:51.516Z,50.40
2024-04-19T17:28:55.097Z,50.40
2024-04-19T17:31:57.977Z,50.38
2024-04-19T17:35:00.714Z,50.40
2024-04-19T17:38:03.171Z,50.39
2024-04-19T17:41:06.463Z,50.37
2024-04-19T17:44:11.689Z,50.35
2024-04-19T17:47:15.328Z,50.35
2024-04-19T17:50:17.825Z,50.40
2024-04-19T17:53:20.342Z,50.45
2024-04-19T17:56:22.899Z,50.43
2024-04-19T17:59:26.873Z,50.48
2024-04-19T18:02:29.329Z,50.53
2024-04-19T18:05:31.780Z,50.54
2024-04-19T18:08:34.345Z,50.54
2024-04-19T18:11:36.775Z,50.59
2024-04-19T18:14:39.058Z,50.61
2024-04-19T18:17:41.651Z,50.62
2024-04-19T18:20:47.061Z,50.58
2024-04-19T18:23:49.514Z,50.57
2024-04-19T18:26:52.666Z,50.60
2024-04-19T18:29:58.152Z,50.62
2024-04-19T18:33:00.777Z,50.59
2024-04-19T18:36:03.475Z,50.61
2024-04-19T18:39:06.953Z,50.54
2024-04-19T18:42:09.613Z,50.18
2024-04-19T18:45:11.852Z,50.20
2024-04-19T18:48:15.490Z,50.27
2024-04-19T18:51:17.946Z,50.45
2024-04-19T18:54:20.284Z,50.43
2024-04-19T18:57:22.705Z,50.50
2024-04-19T19:00:25.086Z,50.53
2024-04-19T19:03:29.320Z,50.53
2024-04-19T19:06:32.405Z,50.47
2024-04-19T19:09:34.879Z,50.47
2024-04-19T19:12:42.728Z,50.47
2024-04-19T19:15:58.613Z,50.25
2024-04-19T19:19:01.102Z,50.31
2024-04-19T19:22:03.726Z,50.37
2024-04-19T19:25:06.741Z,50.47
2024-04-19T19:28:09.263Z,50.54
2024-04-19T19:31:11.582Z,50.54
2024-04-19T19:34:13.914Z,50.49
2024-04-19T19:37:16.338Z,50.47
2024-04-19T19:40:18.707Z,50.47
2024-04-19T19:43:21.907Z,50.36
2024-04-19T19:46:24.679Z,50.40
2024-04-19T19:49:27.208Z,50.37
2024-04-19T19:52:30.939Z,50.40
2024-04-19T19:55:33.200Z,50.42
2024-04-19T19:58:35.608Z,50.48
2024-04-19T20:01:56.661Z,50.43
2024-04-19T20:05:17.742Z,50.47
2024-04-19T20:08:20.196Z,50.47
2024-04-19T20:11:23.511Z,50.43
2024-04-19T20:14:27.002Z,50.45
2024-04-19T20:17:29.513Z,50.45
2024-04-19T20:20:32.058Z,50.46
2024-04-19T20:23:34.390Z,50.50
2024-04-19T20:26:36.740Z,50.45
2024-04-19T20:29:39.256Z,50.47
2024-04-19T20:32:41.576Z,50.45
2024-04-19T20:35:44.270Z,50.43
2024-04-19T20:38:46.617Z,50.43
2024-04-19T20:41:49.007Z,50.47
2024-04-19T20:44:51.489Z,50.45
2024-04-19T20:47:54.442Z,50.47
2024-04-19T20:50:56.837Z,50.43
2024-04-19T20:53:59.286Z,50.47
2024-04-19T20:57:02.931Z,50.45
2024-04-19T21:00:06.256Z,50.42
2024-04-19T21:03:08.631Z,50.39
2024-04-19T21:06:11.660Z,50.43
2024-04-19T21:09:14.036Z,50.43
2024-04-19T21:12:16.336Z,50.37
2024-04-19T21:15:19.738Z,50.43
2024-04-19T21:18:22.333Z,50.43
2024-04-19T21:21:25.592Z,50.40
2024-04-19T21:24:28.187Z,50.37
2024-04-19T21:27:30.932Z,50.40
2024-04-19T21:30:33.282Z,50.38
2024-04-19T21:33:36.903Z,50.34
2024-04-19T21:36:41.746Z,50.43
2024-04-19T21:39:44.252Z,50.39
2024-04-19T21:42:49.881Z,50.40
2024-04-19T21:45:52.264Z,50.47
2024-04-19T21:48:55.402Z,50.45
2024-04-19T21:51:59.341Z,50.47
2024-04-19T21:55:02.001Z,50.54
2024-04-19T21:58:05.187Z,50.58
2024-04-19T22:01:07.847Z,50.64
2024-04-19T22:04:10.327Z,50.70
2024-04-19T22:07:12.700Z,50.78
2024-04-19T22:10:15.083Z,50.82
2024-04-19T22:13:18.830Z,50.88
2024-04-19T22:16:21.399Z,50.92
2024-04-19T22:19:25.038Z,50.96
2024-04-19T22:22:27.641Z,51.00
2024-04-19T22:25:30.033Z,51.00
2024-04-19T22:28:35.470Z,51.04
2024-04-19T22:31:41.058Z,51.05
2024-04-19T22:34:43.542Z,51.04
2024-04-19T22:37:46.029Z,51.10
2024-04-19T22:40:48.395Z,51.09
2024-04-19T22:43:50.819Z,51.14
2024-04-19T22:46:53.481Z,51.15
2024-04-19T22:49:56.649Z,51.14
2024-04-19T22:52:58.999Z,51.17
2024-04-19T22:56:01.464Z,51.16
2024-04-19T22:59:03.891Z,51.12
2024-04-19T23:02:06.192Z,51.15
2024-04-19T23:05:08.602Z,51.19
2024-04-19T23:08:11.233Z,51.16
2024-04-19T23:11:13.915Z,51.20
2024-04-19T23:14:18.594Z,51.21
2024-04-19T23:17:23.145Z,51.19
2024-04-19T23:20:25.533Z,51.20
2024-04-19T23:23:28.250Z,51.18
2024-04-19T23:26:30.710Z,51.18
2024-04-19T23:29:33.180Z,51.21
2024-04-19T23:32:35.509Z,51.21
2024-04-19T23:35:37.856Z,51.21
2024-04-19T23:38:40.393Z,51.20
2024-04-19T23:41:42.741Z,51.20
2024-04-19T23:44:48.568Z,51.20
2024-04-19T23:47:50.976Z,51.18
2024-04-19T23:50:53.720Z,51.20
2024-04-19T23:54:01.532Z,51.19
2024-04-19T23:57:03.982Z,51.21
